sensor_id;sensor_type;location;lat;lon;timestamp;temperature;humidity
17599;DHT22;8918;52.092;5.232;2023-02-01T00:00:58;5.90;99.90
17599;DHT22;8918;52.092;5.232;2023-02-01T00:03:24;5.90;99.90
17599;DHT22;8918;52.092;5.232;2023-02-01T00:05:59;5.90;99.90
17599;DHT22;8918;52.092;5.232;2023-02-01T00:08:26;5.90;99.90
17599;DHT22;8918;52.092;5.232;2023-02-01T00:11:03;5.90;99.90
17599;DHT22;8918;52.092;5.232;2023-02-01T00:13:30;6.00;99.90
17599;DHT22;8918;52.092;5.232;2023-02-01T00:16:21;5.80;99.90
17599;DHT22;8918;52.092;5.232;2023-02-01T00:18:49;5.80;99.90
17599;DHT22;8918;52.092;5.232;2023-02-01T00:21:18;5.80;99.90
17599;DHT22;8918;52.092;5.232;2023-02-01T00:23:44;5.90;99.90
17599;DHT22;8918;52.092;5.232;2023-02-01T00:26:33;5.90;99.90
17599;DHT22;8918;52.092;5.232;2023-02-01T00:29:00;5.90;99.90
17599;DHT22;8918;52.092;5.232;2023-02-01T00:31:26;5.90;99.90
17599;DHT22;8918;52.092;5.232;2023-02-01T00:33:52;5.90;99.90
17599;DHT22;8918;52.092;5.232;2023-02-01T00:36:17;5.90;99.90
17599;DHT22;8918;52.092;5.232;2023-02-01T00:38:43;6.00;99.90
17599;DHT22;8918;52.092;5.232;2023-02-01T00:41:17;6.00;99.90
17599;DHT22;8918;52.092;5.232;2023-02-01T00:43:44;6.00;99.90
17599;DHT22;8918;52.092;5.232;2023-02-01T00:46:11;6.00;99.90
17599;DHT22;8918;52.092;5.232;2023-02-01T00:48:37;6.00;99.90
17599;DHT22;8918;52.092;5.232;2023-02-01T00:51:15;6.10;99.90
17599;DHT22;8918;52.092;5.232;2023-02-01T00:53:41;6.10;99.90
17599;DHT22;8918;52.092;5.232;2023-02-01T00:56:08;6.10;99.90
17599;DHT22;8918;52.092;5.232;2023-02-01T00:58:33;6.10;99.90
17599;DHT22;8918;52.092;5.232;2023-02-01T01:01:19;6.10;99.90
17599;DHT22;8918;52.092;5.232;2023-02-01T01:03:47;6.10;99.90
17599;DHT22;8918;52.092;5.232;2023-02-01T01:06:22;6.20;99.90
17599;DHT22;8918;52.092;5.232;2023-02-01T01:08:51;6.30;99.90
17599;DHT22;8918;52.092;5.232;2023-02-01T01:11:22;6.30;99.90
17599;DHT22;8918;52.092;5.232;2023-02-01T01:13:50;6.30;99.90
17599;DHT22;8918;52.092;5.232;2023-02-01T01:16:17;6.30;99.90
17599;DHT22;8918;52.092;5.232;2023-02-01T01:18:43;6.30;99.90
17599;DHT22;8918;52.092;5.232;2023-02-01T01:21:09;6.30;99.90
17599;DHT22;8918;52.092;5.232;2023-02-01T01:23:36;6.30;99.90
17599;DHT22;8918;52.092;5.232;2023-02-01T01:26:06;6.30;99.90
17599;DHT22;8918;52.092;5.232;2023-02-01T01:28:33;6.40;99.90
17599;DHT22;8918;52.092;5.232;2023-02-01T01:30:58;6.30;99.90
17599;DHT22;8918;52.092;5.232;2023-02-01T01:33:24;6.40;99.90
17599;DHT22;8918;52.092;5.232;2023-02-01T01:35:50;6.40;99.90
17599;DHT22;8918;52.092;5.232;2023-02-01T01:38:15;6.40;99.90
17599;DHT22;8918;52.092;5.232;2023-02-01T01:40:45;6.40;99.90
17599;DHT22;8918;52.092;5.232;2023-02-01T01:43:15;6.40;99.90
17599;DHT22;8918;52.092;5.232;2023-02-01T01:45:42;6.40;99.90
17599;DHT22;8918;52.092;5.232;2023-02-01T01:48:25;6.40;99.90
17599;DHT22;8918;52.092;5.232;2023-02-01T01:50:56;6.40;99.90
17599;DHT22;8918;52.092;5.232;2023-02-01T01:53:34;6.40;99.90
17599;DHT22;8918;52.092;5.232;2023-02-01T01:56:03;6.50;99.90
17599;DHT22;8918;52.092;5.232;2023-02-01T01:58:29;6.50;99.90
17599;DHT22;8918;52.092;5.232;2023-02-01T02:00:55;6.60;99.90
17599;DHT22;8918;52.092;5.232;2023-02-01T02:03:25;6.60;99.90
17599;DHT22;8918;52.092;5.232;2023-02-01T02:05:52;6.60;99.90
17599;DHT22;8918;52.092;5.232;2023-02-01T02:08:20;6.70;99.90
17599;DHT22;8918;52.092;5.232;2023-02-01T02:10:48;6.60;99.90
17599;DHT22;8918;52.092;5.232;2023-02-01T02:13:35;6.60;99.90
17599;DHT22;8918;52.092;5.232;2023-02-01T02:27:43;6.90;99.90
17599;DHT22;8918;52.092;5.232;2023-02-01T02:38:47;7.00;99.90
17599;DHT22;8918;52.092;5.232;2023-02-01T02:41:48;6.90;99.90
17599;DHT22;8918;52.092;5.232;2023-02-01T02:44:45;6.90;99.90
17599;DHT22;8918;52.092;5.232;2023-02-01T02:47:43;6.90;99.90
17599;DHT22;8918;52.092;5.232;2023-02-01T02:53:16;7.00;99.90
17599;DHT22;8918;52.092;5.232;2023-02-01T02:56:04;7.00;99.90
17599;DHT22;8918;52.092;5.232;2023-02-01T02:58:49;7.00;99.90
17599;DHT22;8918;52.092;5.232;2023-02-01T03:01:34;7.00;99.90
17599;DHT22;8918;52.092;5.232;2023-02-01T03:04:19;7.00;99.90
17599;DHT22;8918;52.092;5.232;2023-02-01T03:06:45;7.10;99.90
17599;DHT22;8918;52.092;5.232;2023-02-01T03:09:30;7.00;99.90
17599;DHT22;8918;52.092;5.232;2023-02-01T03:12:01;7.00;99.90
17599;DHT22;8918;52.092;5.232;2023-02-01T03:14:51;7.00;99.90
17599;DHT22;8918;52.092;5.232;2023-02-01T03:17:22;7.00;99.90
17599;DHT22;8918;52.092;5.232;2023-02-01T03:19:52;6.90;99.90
17599;DHT22;8918;52.092;5.232;2023-02-01T03:22:23;6.90;99.90
17599;DHT22;8918;52.092;5.232;2023-02-01T03:24:59;6.90;99.90
17599;DHT22;8918;52.092;5.232;2023-02-01T03:27:47;6.90;99.90
17599;DHT22;8918;52.092;5.232;2023-02-01T03:30:22;6.80;99.90
17599;DHT22;8918;52.092;5.232;2023-02-01T03:32:50;6.80;99.90
17599;DHT22;8918;52.092;5.232;2023-02-01T03:41:20;6.70;99.90
17599;DHT22;8918;52.092;5.232;2023-02-01T03:46:55;6.60;99.90
17599;DHT22;8918;52.092;5.232;2023-02-01T03:49:35;6.60;99.90
17599;DHT22;8918;52.092;5.232;2023-02-01T03:52:03;6.70;99.90
17599;DHT22;8918;52.092;5.232;2023-02-01T03:54:30;6.70;99.90
17599;DHT22;8918;52.092;5.232;2023-02-01T03:57:01;6.70;99.90
17599;DHT22;8918;52.092;5.232;2023-02-01T03:59:28;6.70;99.90
17599;DHT22;8918;52.092;5.232;2023-02-01T04:01:53;6.70;99.90
17599;DHT22;8918;52.092;5.232;2023-02-01T04:04:19;6.80;99.90
17599;DHT22;8918;52.092;5.232;2023-02-01T04:06:49;6.80;99.90
17599;DHT22;8918;52.092;5.232;2023-02-01T04:09:15;6.80;99.90
17599;DHT22;8918;52.092;5.232;2023-02-01T04:11:41;6.80;99.90
17599;DHT22;8918;52.092;5.232;2023-02-01T04:14:07;6.80;99.90
17599;DHT22;8918;52.092;5.232;2023-02-01T04:16:33;6.80;99.90
17599;DHT22;8918;52.092;5.232;2023-02-01T04:18:59;6.90;99.90
17599;DHT22;8918;52.092;5.232;2023-02-01T04:21:25;6.90;99.90
17599;DHT22;8918;52.092;5.232;2023-02-01T04:23:52;6.90;99.90
17599;DHT22;8918;52.092;5.232;2023-02-01T04:26:17;6.90;99.90
17599;DHT22;8918;52.092;5.232;2023-02-01T04:28:44;6.90;99.90
17599;DHT22;8918;52.092;5.232;2023-02-01T04:31:09;6.90;99.90
17599;DHT22;8918;52.092;5.232;2023-02-01T04:33:35;6.90;99.90
17599;DHT22;8918;52.092;5.232;2023-02-01T04:36:01;7.00;99.90
17599;DHT22;8918;52.092;5.232;2023-02-01T04:38:26;7.00;99.90
17599;DHT22;8918;52.092;5.232;2023-02-01T04:40:54;7.00;99.90
17599;DHT22;8918;52.092;5.232;2023-02-01T04:43:20;6.90;99.90
17599;DHT22;8918;52.092;5.232;2023-02-01T04:45:49;6.90;99.90
17599;DHT22;8918;52.092;5.232;2023-02-01T04:48:15;7.00;99.90
17599;DHT22;8918;52.092;5.232;2023-02-01T04:50:42;6.90;99.90
17599;DHT22;8918;52.092;5.232;2023-02-01T04:53:07;6.90;99.90
17599;DHT22;8918;52.092;5.232;2023-02-01T04:55:33;6.90;99.90
17599;DHT22;8918;52.092;5.232;2023-02-01T04:57:59;6.80;99.90
17599;DHT22;8918;52.092;5.232;2023-02-01T05:00:25;6.70;99.90
17599;DHT22;8918;52.092;5.232;2023-02-01T05:02:50;6.70;99.90
17599;DHT22;8918;52.092;5.232;2023-02-01T05:05:16;6.70;99.90
17599;DHT22;8918;52.092;5.232;2023-02-01T05:07:41;6.60;99.90
17599;DHT22;8918;52.092;5.232;2023-02-01T05:10:08;6.50;99.90
17599;DHT22;8918;52.092;5.232;2023-02-01T05:12:33;6.50;99.90
17599;DHT22;8918;52.092;5.232;2023-02-01T05:15:17;6.60;99.90
17599;DHT22;8918;52.092;5.232;2023-02-01T05:17:43;6.50;99.90
17599;DHT22;8918;52.092;5.232;2023-02-01T05:20:09;6.60;99.90
17599;DHT22;8918;52.092;5.232;2023-02-01T05:22:35;6.60;99.90
17599;DHT22;8918;52.092;5.232;2023-02-01T05:25:00;6.60;99.90
17599;DHT22;8918;52.092;5.232;2023-02-01T05:27:26;6.60;99.90
17599;DHT22;8918;52.092;5.232;2023-02-01T05:29:53;6.60;99.90
17599;DHT22;8918;52.092;5.232;2023-02-01T05:32:19;6.60;99.90
17599;DHT22;8918;52.092;5.232;2023-02-01T05:34:44;6.60;99.90
17599;DHT22;8918;52.092;5.232;2023-02-01T05:37:10;6.60;99.90
17599;DHT22;8918;52.092;5.232;2023-02-01T05:39:35;6.60;99.90
17599;DHT22;8918;52.092;5.232;2023-02-01T05:42:01;6.60;99.90
17599;DHT22;8918;52.092;5.232;2023-02-01T05:44:27;6.60;99.90
17599;DHT22;8918;52.092;5.232;2023-02-01T05:46:52;6.60;99.90
17599;DHT22;8918;52.092;5.232;2023-02-01T05:49:18;6.60;99.90
17599;DHT22;8918;52.092;5.232;2023-02-01T05:51:43;6.70;99.90
17599;DHT22;8918;52.092;5.232;2023-02-01T05:54:09;6.70;99.90
17599;DHT22;8918;52.092;5.232;2023-02-01T05:56:35;6.60;99.90
17599;DHT22;8918;52.092;5.232;2023-02-01T05:59:00;6.70;99.90
17599;DHT22;8918;52.092;5.232;2023-02-01T06:01:26;6.70;99.90
17599;DHT22;8918;52.092;5.232;2023-02-01T06:03:52;6.70;99.90
17599;DHT22;8918;52.092;5.232;2023-02-01T06:06:17;6.60;99.90
17599;DHT22;8918;52.092;5.232;2023-02-01T06:08:44;6.60;99.90
17599;DHT22;8918;52.092;5.232;2023-02-01T06:11:09;6.60;99.90
17599;DHT22;8918;52.092;5.232;2023-02-01T06:13:35;6.60;99.90
17599;DHT22;8918;52.092;5.232;2023-02-01T06:16:02;6.60;99.90
17599;DHT22;8918;52.092;5.232;2023-02-01T06:18:28;6.60;99.90
17599;DHT22;8918;52.092;5.232;2023-02-01T06:20:56;6.50;99.90
17599;DHT22;8918;52.092;5.232;2023-02-01T06:23:22;6.50;99.90
17599;DHT22;8918;52.092;5.232;2023-02-01T06:25:50;6.50;99.90
17599;DHT22;8918;52.092;5.232;2023-02-01T06:28:16;6.50;99.90
17599;DHT22;8918;52.092;5.232;2023-02-01T06:30:41;6.40;99.90
17599;DHT22;8918;52.092;5.232;2023-02-01T06:33:12;6.40;99.90
17599;DHT22;8918;52.092;5.232;2023-02-01T06:35:40;6.40;99.90
17599;DHT22;8918;52.092;5.232;2023-02-01T06:38:07;6.40;99.90
17599;DHT22;8918;52.092;5.232;2023-02-01T06:40:33;6.30;99.90
17599;DHT22;8918;52.092;5.232;2023-02-01T06:42:58;6.30;99.90
17599;DHT22;8918;52.092;5.232;2023-02-01T06:45:24;6.40;99.90
17599;DHT22;8918;52.092;5.232;2023-02-01T06:47:50;6.40;99.90
17599;DHT22;8918;52.092;5.232;2023-02-01T06:50:16;6.40;99.90
17599;DHT22;8918;52.092;5.232;2023-02-01T06:52:41;6.40;99.90
17599;DHT22;8918;52.092;5.232;2023-02-01T06:55:07;6.40;99.90
17599;DHT22;8918;52.092;5.232;2023-02-01T06:57:33;6.40;99.90
17599;DHT22;8918;52.092;5.232;2023-02-01T06:59:59;6.50;99.90
17599;DHT22;8918;52.092;5.232;2023-02-01T07:02:25;6.50;99.90
17599;DHT22;8918;52.092;5.232;2023-02-01T07:04:50;6.50;99.90
17599;DHT22;8918;52.092;5.232;2023-02-01T07:07:16;6.60;99.90
17599;DHT22;8918;52.092;5.232;2023-02-01T07:09:42;6.60;99.90
17599;DHT22;8918;52.092;5.232;2023-02-01T07:12:07;6.60;99.90
17599;DHT22;8918;52.092;5.232;2023-02-01T07:14:33;6.60;99.90
17599;DHT22;8918;52.092;5.232;2023-02-01T07:16:59;6.60;99.90
17599;DHT22;8918;52.092;5.232;2023-02-01T07:19:24;6.60;99.90
17599;DHT22;8918;52.092;5.232;2023-02-01T07:21:50;6.60;99.90
17599;DHT22;8918;52.092;5.232;2023-02-01T07:24:16;6.60;99.90
17599;DHT22;8918;52.092;5.232;2023-02-01T07:26:41;6.60;99.90
17599;DHT22;8918;52.092;5.232;2023-02-01T07:29:07;6.60;99.90
17599;DHT22;8918;52.092;5.232;2023-02-01T07:31:32;6.60;99.90
17599;DHT22;8918;52.092;5.232;2023-02-01T07:33:58;6.60;99.90
17599;DHT22;8918;52.092;5.232;2023-02-01T07:36:24;6.60;99.90
17599;DHT22;8918;52.092;5.232;2023-02-01T07:38:50;6.60;99.90
17599;DHT22;8918;52.092;5.232;2023-02-01T07:41:17;6.70;99.90
17599;DHT22;8918;52.092;5.232;2023-02-01T07:43:43;6.70;99.90
17599;DHT22;8918;52.092;5.232;2023-02-01T07:46:10;6.60;99.90
17599;DHT22;8918;52.092;5.232;2023-02-01T07:48:36;6.70;99.90
17599;DHT22;8918;52.092;5.232;2023-02-01T07:51:04;6.70;99.90
17599;DHT22;8918;52.092;5.232;2023-02-01T07:53:31;6.70;99.90
17599;DHT22;8918;52.092;5.232;2023-02-01T07:55:57;6.70;99.90
17599;DHT22;8918;52.092;5.232;2023-02-01T07:58:23;6.70;99.90
17599;DHT22;8918;52.092;5.232;2023-02-01T08:00:49;6.70;99.90
17599;DHT22;8918;52.092;5.232;2023-02-01T08:03:33;6.70;99.90
17599;DHT22;8918;52.092;5.232;2023-02-01T08:05:59;6.70;99.90
17599;DHT22;8918;52.092;5.232;2023-02-01T08:08:24;6.70;99.90
17599;DHT22;8918;52.092;5.232;2023-02-01T08:10:50;6.70;99.90
17599;DHT22;8918;52.092;5.232;2023-02-01T08:13:16;6.70;99.90
17599;DHT22;8918;52.092;5.232;2023-02-01T08:15:42;6.60;99.90
17599;DHT22;8918;52.092;5.232;2023-02-01T08:18:08;6.70;99.90
17599;DHT22;8918;52.092;5.232;2023-02-01T08:20:35;6.70;99.90
17599;DHT22;8918;52.092;5.232;2023-02-01T08:23:01;6.70;99.90
17599;DHT22;8918;52.092;5.232;2023-02-01T08:25:27;6.70;99.90
17599;DHT22;8918;52.092;5.232;2023-02-01T08:27:53;6.70;99.90
17599;DHT22;8918;52.092;5.232;2023-02-01T08:30:20;6.80;99.90
17599;DHT22;8918;52.092;5.232;2023-02-01T08:32:45;6.80;99.90
17599;DHT22;8918;52.092;5.232;2023-02-01T08:35:11;6.80;99.90
17599;DHT22;8918;52.092;5.232;2023-02-01T08:37:37;6.80;99.90
17599;DHT22;8918;52.092;5.232;2023-02-01T08:40:03;6.90;99.90
17599;DHT22;8918;52.092;5.232;2023-02-01T08:42:29;6.90;99.90
17599;DHT22;8918;52.092;5.232;2023-02-01T08:45:13;7.00;99.90
17599;DHT22;8918;52.092;5.232;2023-02-01T08:47:39;7.10;99.90
17599;DHT22;8918;52.092;5.232;2023-02-01T08:50:05;7.10;99.90
17599;DHT22;8918;52.092;5.232;2023-02-01T08:52:31;7.10;99.90
17599;DHT22;8918;52.092;5.232;2023-02-01T08:54:57;7.20;99.90
17599;DHT22;8918;52.092;5.232;2023-02-01T08:57:22;7.20;99.90
17599;DHT22;8918;52.092;5.232;2023-02-01T08:59:48;7.30;99.90
17599;DHT22;8918;52.092;5.232;2023-02-01T09:02:16;7.40;99.90
17599;DHT22;8918;52.092;5.232;2023-02-01T09:04:42;7.50;99.90
17599;DHT22;8918;52.092;5.232;2023-02-01T09:07:10;7.40;99.90
17599;DHT22;8918;52.092;5.232;2023-02-01T09:09:36;7.50;99.90
17599;DHT22;8918;52.092;5.232;2023-02-01T09:12:03;7.40;99.90
17599;DHT22;8918;52.092;5.232;2023-02-01T09:14:28;7.60;99.90
17599;DHT22;8918;52.092;5.232;2023-02-01T09:16:54;7.70;99.90
17599;DHT22;8918;52.092;5.232;2023-02-01T09:19:20;7.80;99.90
17599;DHT22;8918;52.092;5.232;2023-02-01T09:21:45;7.90;99.90
17599;DHT22;8918;52.092;5.232;2023-02-01T09:24:11;8.00;99.90
17599;DHT22;8918;52.092;5.232;2023-02-01T09:26:37;8.20;99.90
17599;DHT22;8918;52.092;5.232;2023-02-01T09:29:03;8.20;99.90
17599;DHT22;8918;52.092;5.232;2023-02-01T09:31:29;8.10;99.90
17599;DHT22;8918;52.092;5.232;2023-02-01T09:33:55;8.10;99.90
17599;DHT22;8918;52.092;5.232;2023-02-01T09:36:21;8.00;99.90
17599;DHT22;8918;52.092;5.232;2023-02-01T09:38:46;7.80;99.90
17599;DHT22;8918;52.092;5.232;2023-02-01T09:46:33;7.70;99.90
17599;DHT22;8918;52.092;5.232;2023-02-01T09:49:20;7.70;99.90
17599;DHT22;8918;52.092;5.232;2023-02-01T09:51:49;7.90;99.90
17599;DHT22;8918;52.092;5.232;2023-02-01T09:54:22;7.90;99.90
17599;DHT22;8918;52.092;5.232;2023-02-01T09:59:53;7.90;99.90
17599;DHT22;8918;52.092;5.232;2023-02-01T10:02:23;7.90;99.90
17599;DHT22;8918;52.092;5.232;2023-02-01T10:04:49;7.80;99.90
17599;DHT22;8918;52.092;5.232;2023-02-01T10:10:12;7.80;99.90
17599;DHT22;8918;52.092;5.232;2023-02-01T10:15:55;7.70;99.90
17599;DHT22;8918;52.092;5.232;2023-02-01T10:18:47;7.60;99.90
17599;DHT22;8918;52.092;5.232;2023-02-01T10:29:41;7.40;99.90
17599;DHT22;8918;52.092;5.232;2023-02-01T10:32:28;7.30;99.90
17599;DHT22;8918;52.092;5.232;2023-02-01T10:35:08;7.30;99.90
17599;DHT22;8918;52.092;5.232;2023-02-01T10:37:35;7.30;99.90
17599;DHT22;8918;52.092;5.232;2023-02-01T10:40:19;7.30;99.90
17599;DHT22;8918;52.092;5.232;2023-02-01T10:42:48;7.30;99.90
17599;DHT22;8918;52.092;5.232;2023-02-01T10:45:19;7.30;99.90
17599;DHT22;8918;52.092;5.232;2023-02-01T10:47:47;7.40;99.90
17599;DHT22;8918;52.092;5.232;2023-02-01T10:53:17;7.60;99.90
17599;DHT22;8918;52.092;5.232;2023-02-01T10:55:50;7.70;99.90
17599;DHT22;8918;52.092;5.232;2023-02-01T11:00:49;7.60;99.90
17599;DHT22;8918;52.092;5.232;2023-02-01T11:05:56;7.80;99.90
17599;DHT22;8918;52.092;5.232;2023-02-01T11:08:22;7.80;99.90
17599;DHT22;8918;52.092;5.232;2023-02-01T11:10:58;7.80;99.90
17599;DHT22;8918;52.092;5.232;2023-02-01T11:13:29;7.80;99.90
17599;DHT22;8918;52.092;5.232;2023-02-01T11:15:56;7.80;99.90
17599;DHT22;8918;52.092;5.232;2023-02-01T11:18:27;7.70;99.90
17599;DHT22;8918;52.092;5.232;2023-02-01T11:20:53;7.70;99.90
17599;DHT22;8918;52.092;5.232;2023-02-01T11:23:23;7.60;99.90
17599;DHT22;8918;52.092;5.232;2023-02-01T11:25:55;7.50;99.90
17599;DHT22;8918;52.092;5.232;2023-02-01T11:28:25;7.50;99.90
17599;DHT22;8918;52.092;5.232;2023-02-01T11:30:53;7.60;99.90
17599;DHT22;8918;52.092;5.232;2023-02-01T11:33:22;7.60;99.90
17599;DHT22;8918;52.092;5.232;2023-02-01T11:35:52;7.70;99.90
17599;DHT22;8918;52.092;5.232;2023-02-01T11:38:19;7.80;99.90
17599;DHT22;8918;52.092;5.232;2023-02-01T11:40:45;7.90;99.90
17599;DHT22;8918;52.092;5.232;2023-02-01T11:43:25;7.80;99.90
17599;DHT22;8918;52.092;5.232;2023-02-01T11:45:58;7.90;99.90
17599;DHT22;8918;52.092;5.232;2023-02-01T11:48:26;8.00;99.90
17599;DHT22;8918;52.092;5.232;2023-02-01T11:51:02;8.10;99.90
17599;DHT22;8918;52.092;5.232;2023-02-01T11:53:58;8.10;99.90
17599;DHT22;8918;52.092;5.232;2023-02-01T11:56:36;8.20;99.90
17599;DHT22;8918;52.092;5.232;2023-02-01T11:59:20;8.30;99.90
17599;DHT22;8918;52.092;5.232;2023-02-01T12:10:07;8.20;99.90
17599;DHT22;8918;52.092;5.232;2023-02-01T12:12:58;8.30;99.90
17599;DHT22;8918;52.092;5.232;2023-02-01T12:42:26;8.30;99.90
17599;DHT22;8918;52.092;5.232;2023-02-01T12:47:41;8.40;99.90
17599;DHT22;8918;52.092;5.232;2023-02-01T12:50:42;8.40;99.90
17599;DHT22;8918;52.092;5.232;2023-02-01T12:53:27;8.40;99.90
17599;DHT22;8918;52.092;5.232;2023-02-01T12:56:00;8.60;99.90
17599;DHT22;8918;52.092;5.232;2023-02-01T12:58:42;8.50;99.90
17599;DHT22;8918;52.092;5.232;2023-02-01T13:01:14;8.50;99.90
17599;DHT22;8918;52.092;5.232;2023-02-01T13:04:10;8.40;99.90
17599;DHT22;8918;52.092;5.232;2023-02-01T13:06:45;8.40;99.90
17599;DHT22;8918;52.092;5.232;2023-02-01T13:09:34;8.40;99.90
17599;DHT22;8918;52.092;5.232;2023-02-01T13:12:10;8.40;99.90
17599;DHT22;8918;52.092;5.232;2023-02-01T13:14:48;8.40;99.90
17599;DHT22;8918;52.092;5.232;2023-02-01T13:17:21;8.40;99.90
17599;DHT22;8918;52.092;5.232;2023-02-01T13:19:52;8.40;99.90
17599;DHT22;8918;52.092;5.232;2023-02-01T13:22:28;8.40;99.90
17599;DHT22;8918;52.092;5.232;2023-02-01T13:24:58;8.40;99.90
17599;DHT22;8918;52.092;5.232;2023-02-01T13:27:27;8.40;99.90
17599;DHT22;8918;52.092;5.232;2023-02-01T13:30:02;8.40;99.90
17599;DHT22;8918;52.092;5.232;2023-02-01T13:35:19;8.40;99.90
17599;DHT22;8918;52.092;5.232;2023-02-01T13:38:04;8.40;99.90
17599;DHT22;8918;52.092;5.232;2023-02-01T13:43:38;8.50;99.90
17599;DHT22;8918;52.092;5.232;2023-02-01T13:46:08;8.50;99.90
17599;DHT22;8918;52.092;5.232;2023-02-01T13:48:51;8.40;99.90
17599;DHT22;8918;52.092;5.232;2023-02-01T13:54:01;8.40;99.90
17599;DHT22;8918;52.092;5.232;2023-02-01T13:56:27;8.40;99.90
17599;DHT22;8918;52.092;5.232;2023-02-01T13:58:52;8.40;99.90
17599;DHT22;8918;52.092;5.232;2023-02-01T14:03:55;8.50;99.90
17599;DHT22;8918;52.092;5.232;2023-02-01T14:11:45;8.40;99.90
17599;DHT22;8918;52.092;5.232;2023-02-01T14:19:29;8.40;99.90
17599;DHT22;8918;52.092;5.232;2023-02-01T14:21:59;8.40;99.90
17599;DHT22;8918;52.092;5.232;2023-02-01T14:24:27;8.50;99.90
17599;DHT22;8918;52.092;5.232;2023-02-01T14:26:55;8.50;99.90
17599;DHT22;8918;52.092;5.232;2023-02-01T14:42:29;8.50;99.90
17599;DHT22;8918;52.092;5.232;2023-02-01T14:50:33;8.40;99.90
17599;DHT22;8918;52.092;5.232;2023-02-01T14:55:59;8.50;99.90
17599;DHT22;8918;52.092;5.232;2023-02-01T15:03:48;8.50;99.90
17599;DHT22;8918;52.092;5.232;2023-02-01T15:09:31;8.40;99.90
17599;DHT22;8918;52.092;5.232;2023-02-01T15:17:28;8.40;99.90
17599;DHT22;8918;52.092;5.232;2023-02-01T15:20:01;8.50;99.90
17599;DHT22;8918;52.092;5.232;2023-02-01T15:22:29;8.50;99.90
17599;DHT22;8918;52.092;5.232;2023-02-01T15:24:56;8.50;99.90
17599;DHT22;8918;52.092;5.232;2023-02-01T15:27:23;8.40;99.90
17599;DHT22;8918;52.092;5.232;2023-02-01T15:29:49;8.50;99.90
17599;DHT22;8918;52.092;5.232;2023-02-01T15:32:35;8.50;99.90
17599;DHT22;8918;52.092;5.232;2023-02-01T15:35:03;8.50;99.90
17599;DHT22;8918;52.092;5.232;2023-02-01T15:37:29;8.50;99.90
17599;DHT22;8918;52.092;5.232;2023-02-01T15:42:57;8.60;99.90
17599;DHT22;8918;52.092;5.232;2023-02-01T15:45:27;8.50;99.90
17599;DHT22;8918;52.092;5.232;2023-02-01T15:47:55;8.50;99.90
17599;DHT22;8918;52.092;5.232;2023-02-01T15:50:21;8.50;99.90
17599;DHT22;8918;52.092;5.232;2023-02-01T15:52:50;8.50;99.90
17599;DHT22;8918;52.092;5.232;2023-02-01T15:55:45;8.50;99.90
17599;DHT22;8918;52.092;5.232;2023-02-01T15:58:21;8.50;99.90
17599;DHT22;8918;52.092;5.232;2023-02-01T16:00:53;8.50;99.90
17599;DHT22;8918;52.092;5.232;2023-02-01T16:06:00;8.50;99.90
17599;DHT22;8918;52.092;5.232;2023-02-01T16:08:29;8.50;99.90
17599;DHT22;8918;52.092;5.232;2023-02-01T16:11:01;8.50;99.90
17599;DHT22;8918;52.092;5.232;2023-02-01T16:13:39;8.50;99.90
17599;DHT22;8918;52.092;5.232;2023-02-01T16:16:07;8.50;99.90
17599;DHT22;8918;52.092;5.232;2023-02-01T16:18:39;8.50;99.90
17599;DHT22;8918;52.092;5.232;2023-02-01T16:21:05;8.50;99.90
17599;DHT22;8918;52.092;5.232;2023-02-01T16:23:33;8.50;99.90
17599;DHT22;8918;52.092;5.232;2023-02-01T16:25:58;8.50;99.90
17599;DHT22;8918;52.092;5.232;2023-02-01T16:28:24;8.50;99.90
17599;DHT22;8918;52.092;5.232;2023-02-01T16:30:50;8.50;99.90
17599;DHT22;8918;52.092;5.232;2023-02-01T16:33:18;8.50;99.90
17599;DHT22;8918;52.092;5.232;2023-02-01T16:35:47;8.50;99.90
17599;DHT22;8918;52.092;5.232;2023-02-01T16:38:16;8.60;99.90
17599;DHT22;8918;52.092;5.232;2023-02-01T16:40:45;8.60;99.90
17599;DHT22;8918;52.092;5.232;2023-02-01T16:43:20;8.60;99.90
17599;DHT22;8918;52.092;5.232;2023-02-01T16:45:47;8.60;99.90
17599;DHT22;8918;52.092;5.232;2023-02-01T16:48:25;8.60;99.90
17599;DHT22;8918;52.092;5.232;2023-02-01T16:50:57;8.60;99.90
17599;DHT22;8918;52.092;5.232;2023-02-01T16:53:25;8.60;99.90
17599;DHT22;8918;52.092;5.232;2023-02-01T16:55:53;8.60;99.90
17599;DHT22;8918;52.092;5.232;2023-02-01T16:58:20;8.60;99.90
17599;DHT22;8918;52.092;5.232;2023-02-01T17:00:46;8.60;99.90
17599;DHT22;8918;52.092;5.232;2023-02-01T17:03:12;8.60;99.90
17599;DHT22;8918;52.092;5.232;2023-02-01T17:05:43;8.60;99.90
17599;DHT22;8918;52.092;5.232;2023-02-01T17:08:13;8.60;99.90
17599;DHT22;8918;52.092;5.232;2023-02-01T17:10:42;8.60;99.90
17599;DHT22;8918;52.092;5.232;2023-02-01T17:13:15;8.60;99.90
17599;DHT22;8918;52.092;5.232;2023-02-01T17:15:52;8.60;99.90
17599;DHT22;8918;52.092;5.232;2023-02-01T17:18:19;8.60;99.90
17599;DHT22;8918;52.092;5.232;2023-02-01T17:20:45;8.60;99.90
17599;DHT22;8918;52.092;5.232;2023-02-01T17:23:13;8.60;99.90
17599;DHT22;8918;52.092;5.232;2023-02-01T17:25:42;8.60;99.90
17599;DHT22;8918;52.092;5.232;2023-02-01T17:28:09;8.60;99.90
17599;DHT22;8918;52.092;5.232;2023-02-01T17:30:35;8.60;99.90
17599;DHT22;8918;52.092;5.232;2023-02-01T17:33:02;8.60;99.90
17599;DHT22;8918;52.092;5.232;2023-02-01T17:35:28;8.60;99.90
17599;DHT22;8918;52.092;5.232;2023-02-01T17:37:55;8.70;99.90
17599;DHT22;8918;52.092;5.232;2023-02-01T17:40:21;8.60;99.90
17599;DHT22;8918;52.092;5.232;2023-02-01T17:42:47;8.60;99.90
17599;DHT22;8918;52.092;5.232;2023-02-01T17:45:35;8.60;99.90
17599;DHT22;8918;52.092;5.232;2023-02-01T17:48:02;8.60;99.90
17599;DHT22;8918;52.092;5.232;2023-02-01T17:50:31;8.60;99.90
17599;DHT22;8918;52.092;5.232;2023-02-01T17:52:57;8.60;99.90
17599;DHT22;8918;52.092;5.232;2023-02-01T17:55:24;8.60;99.90
17599;DHT22;8918;52.092;5.232;2023-02-01T17:57:50;8.70;99.90
17599;DHT22;8918;52.092;5.232;2023-02-01T18:00:16;8.70;99.90
17599;DHT22;8918;52.092;5.232;2023-02-01T18:02:42;8.70;99.90
17599;DHT22;8918;52.092;5.232;2023-02-01T18:05:25;8.70;99.90
17599;DHT22;8918;52.092;5.232;2023-02-01T18:07:51;8.70;99.90
17599;DHT22;8918;52.092;5.232;2023-02-01T18:10:17;8.80;99.90
17599;DHT22;8918;52.092;5.232;2023-02-01T18:12:43;8.80;99.90
17599;DHT22;8918;52.092;5.232;2023-02-01T18:15:21;8.80;99.90
17599;DHT22;8918;52.092;5.232;2023-02-01T18:17:47;8.80;99.90
17599;DHT22;8918;52.092;5.232;2023-02-01T18:20:18;8.80;99.90
17599;DHT22;8918;52.092;5.232;2023-02-01T18:22:44;8.80;99.90
17599;DHT22;8918;52.092;5.232;2023-02-01T18:25:25;8.70;99.90
17599;DHT22;8918;52.092;5.232;2023-02-01T18:27:53;8.70;99.90
17599;DHT22;8918;52.092;5.232;2023-02-01T18:30:20;8.70;99.90
17599;DHT22;8918;52.092;5.232;2023-02-01T18:32:47;8.70;99.90
17599;DHT22;8918;52.092;5.232;2023-02-01T18:35:22;8.70;99.90
17599;DHT22;8918;52.092;5.232;2023-02-01T18:37:48;8.70;99.90
17599;DHT22;8918;52.092;5.232;2023-02-01T18:40:19;8.80;99.90
17599;DHT22;8918;52.092;5.232;2023-02-01T18:42:45;8.70;99.90
17599;DHT22;8918;52.092;5.232;2023-02-01T18:47:55;8.80;99.90
17599;DHT22;8918;52.092;5.232;2023-02-01T18:50:21;8.80;99.90
17599;DHT22;8918;52.092;5.232;2023-02-01T18:52:47;8.70;99.90
17599;DHT22;8918;52.092;5.232;2023-02-01T18:55:16;8.70;99.90
17599;DHT22;8918;52.092;5.232;2023-02-01T18:57:42;8.70;99.90
17599;DHT22;8918;52.092;5.232;2023-02-01T19:00:10;8.70;99.90
17599;DHT22;8918;52.092;5.232;2023-02-01T19:02:37;8.70;99.90
17599;DHT22;8918;52.092;5.232;2023-02-01T19:05:08;8.70;99.90